^^
Datos históricos de la estación: Murcia-Puente Tocinos
Diario Informe para Diciembre 05, 2021 Unidades:  Ambas    Ingés   Métrico
Diario Semanal Mensual Anual
  Máxima: Mínima: Promedio:
Temperatura: 66.2 °F /  19 °C 44.4 °F /  6.9 °C 55.6 °F /  13.1 °C
Punto de rocio: 41.7 °F /  5.4 °C 28.4 °F /  -2 °C 37 °F /  2.8 °C
Humedad: 80% 25% 53%
Velocidad viento: 18.5mph /  29.8km/h - 6.2mph /  10km/h
Racha viento: 36mph /  57.9km/h - -
Viento- - OSO
Presión: 30.1 in /  1020.7 hPa 30 in /  1015.3 hPa -
Precipitación: 0 in /  0.0 mm    
 
 
Tabla de datos para Diciembre 05, 2021
Hora Temperatura Punto de rocio Presión Viento Velocidad viento Racha viento Humedad Intensidad lluvia(por hora) Nubes
00:04 54.1 °F /  12.3 °C 41.7 °F /  5.4 °C 30.1in /  1019.7hPa SSO 1.8mph /  2.9km/h 5.2mph /  8.4km/h 63% 0in /  0.0mm
00:09 54 °F /  12.2 °C 41.5 °F /  5.3 °C 30.1in /  1019.8hPa Sur 2.3mph /  3.7km/h 5.9mph /  9.5km/h 63% 0in /  0.0mm
00:14 53.6 °F /  12 °C 41.5 °F /  5.3 °C 30.1in /  1019.8hPa SSE 3.6mph /  5.8km/h 6.2mph /  10km/h 63.5% 0in /  0.0mm
00:19 53.1 °F /  11.7 °C 41.4 °F /  5.2 °C 30.1in /  1019.8hPa SSE 3.9mph /  6.3km/h 6.9mph /  11.1km/h 64.3% 0in /  0.0mm
00:24 52.7 °F /  11.5 °C 41.4 °F /  5.2 °C 30.1in /  1019.8hPa SSE 4.7mph /  7.6km/h 6.2mph /  10km/h 65% 0in /  0.0mm
00:29 52.5 °F /  11.4 °C 41.4 °F /  5.2 °C 30.1in /  1019.8hPa SSE 4.6mph /  7.4km/h 5.9mph /  9.5km/h 66% 0in /  0.0mm
00:34 52.3 °F /  11.3 °C 41.4 °F /  5.2 °C 30.1in /  1019.8hPa SSE 4.3mph /  6.9km/h 7.6mph /  12.2km/h 66.1% 0in /  0.0mm
00:39 52.3 °F /  11.3 °C 41.7 °F /  5.4 °C 30.1in /  1019.8hPa SSE 4.5mph /  7.3km/h 8.1mph /  13km/h 66.7% 0in /  0.0mm
00:44 52.5 °F /  11.4 °C 41.7 °F /  5.4 °C 30.1in /  1019.6hPa SO 5.2mph /  8.4km/h 5.2mph /  8.4km/h 66.4% 0in /  0.0mm
00:49 52.3 °F /  11.3 °C 41.7 °F /  5.4 °C 30.1in /  1019.6hPa SSO 4.6mph /  7.4km/h 5.9mph /  9.5km/h 66.9% 0in /  0.0mm
00:54 52.5 °F /  11.4 °C 41.7 °F /  5.4 °C 30.1in /  1019.6hPa SSO 3.1mph /  5km/h 5.8mph /  9.3km/h 66.6% 0in /  0.0mm
00:59 52.5 °F /  11.4 °C 41.5 °F /  5.3 °C 30.1in /  1019.5hPa Oeste 2.9mph /  4.6km/h 4.6mph /  7.4km/h 66% 0in /  0.0mm
01:04 52.3 °F /  11.3 °C 41.4 °F /  5.2 °C 30.1in /  1019.5hPa NO 2.4mph /  3.9km/h 4.6mph /  7.4km/h 66.1% 0in /  0.0mm
01:09 52.2 °F /  11.2 °C 41.5 °F /  5.3 °C 30.1in /  1019.5hPa NNO 2.3mph /  3.7km/h 4.6mph /  7.4km/h 67.1% 0in /  0.0mm
01:14 52 °F /  11.1 °C 41.7 °F /  5.4 °C 30.1in /  1019.3hPa SSE 2mph /  3.2km/h 6.9mph /  11.1km/h 68% 0in /  0.0mm
01:19 51.6 °F /  10.9 °C 41.5 °F /  5.3 °C 30.1in /  1019.3hPa Sur 2.5mph /  4.1km/h 5.9mph /  9.5km/h 68% 0in /  0.0mm
01:24 51.4 °F /  10.8 °C 41.2 °F /  5.1 °C 30.1in /  1019.3hPa Sur 4mph /  6.4km/h 5.2mph /  8.4km/h 68% 0in /  0.0mm
01:29 51.3 °F /  10.7 °C 41.4 °F /  5.2 °C 30.1in /  1019.2hPa SSE 4mph /  6.4km/h 5.9mph /  9.5km/h 68.8% 0in /  0.0mm
01:34 50.9 °F /  10.5 °C 41.2 °F /  5.1 °C 30.1in /  1019.2hPa SSE 4mph /  6.4km/h 5.9mph /  9.5km/h 69% 0in /  0.0mm
01:39 50.7 °F /  10.4 °C 41.2 °F /  5.1 °C 30.1in /  1019.2hPa SSE 3.9mph /  6.3km/h 5.9mph /  9.5km/h 69.9% 0in /  0.0mm
01:44 50.5 °F /  10.3 °C 41 °F /  5 °C 30.1in /  1019.2hPa Sur 3.6mph /  5.8km/h 4.6mph /  7.4km/h 70% 0in /  0.0mm
01:49 50.4 °F /  10.2 °C 41 °F /  5 °C 30.1in /  1019.2hPa Sur 3.3mph /  5.3km/h 4.6mph /  7.4km/h 70.5% 0in /  0.0mm
01:54 50 °F /  10 °C 41 °F /  5 °C 30.1in /  1019.2hPa SSO 2.4mph /  3.9km/h 3.6mph /  5.8km/h 71% 0in /  0.0mm
01:59 49.8 °F /  9.9 °C 40.8 °F /  4.9 °C 30.1in /  1019.2hPa SO 2.3mph /  3.7km/h 3.5mph /  5.6km/h 71% 0in /  0.0mm
02:04 49.8 °F /  9.9 °C 40.8 °F /  4.9 °C 30.1in /  1019.2hPa SO 2mph /  3.2km/h 3.5mph /  5.6km/h 71% 0in /  0.0mm
02:09 49.6 °F /  9.8 °C 40.8 °F /  4.9 °C 30.1in /  1019.2hPa Oeste 2.1mph /  3.4km/h 4.3mph /  6.9km/h 71.8% 0in /  0.0mm
02:14 49.5 °F /  9.7 °C 40.8 °F /  4.9 °C 30.1in /  1019.2hPa ONO 2.4mph /  3.9km/h 4.7mph /  7.6km/h 72% 0in /  0.0mm
02:19 49.1 °F /  9.5 °C 40.5 °F /  4.7 °C 30.1in /  1019.2hPa Oeste 2.6mph /  4.2km/h 5.2mph /  8.4km/h 72% 0in /  0.0mm
02:24 48.9 °F /  9.4 °C 40.6 °F /  4.8 °C 30.1in /  1019.2hPa OSO 3.1mph /  5km/h 4.7mph /  7.6km/h 72.9% 0in /  0.0mm
02:29 48.7 °F /  9.3 °C 40.5 °F /  4.7 °C 30.1in /  1019.1hPa SO 3.1mph /  5km/h 4.7mph /  7.6km/h 73% 0in /  0.0mm
02:34 48.7 °F /  9.3 °C 40.5 °F /  4.7 °C 30.1in /  1019.1hPa SSO 3.1mph /  5km/h 5.8mph /  9.3km/h 73% 0in /  0.0mm
02:39 48.9 °F /  9.4 °C 40.6 °F /  4.8 °C 30.1in /  1019.1hPa Sur 3mph /  4.9km/h 4.6mph /  7.4km/h 73% 0in /  0.0mm
02:44 48.9 °F /  9.4 °C 40.6 °F /  4.8 °C 30.1in /  1018.8hPa SSO 2.9mph /  4.7km/h 4.6mph /  7.4km/h 73% 0in /  0.0mm
02:49 48.9 °F /  9.4 °C 40.6 °F /  4.8 °C 30.1in /  1018.8hPa Sur 2.8mph /  4.5km/h 4.7mph /  7.6km/h 73% 0in /  0.0mm
02:54 48.9 °F /  9.4 °C 40.6 °F /  4.8 °C 30.1in /  1018.8hPa SSE 2.4mph /  3.9km/h 4.6mph /  7.4km/h 73% 0in /  0.0mm
02:59 48.9 °F /  9.4 °C 40.6 °F /  4.8 °C 30.1in /  1018.8hPa SSO 2.5mph /  4.1km/h 4.7mph /  7.6km/h 73% 0in /  0.0mm
03:04 48.9 °F /  9.4 °C 40.6 °F /  4.8 °C 30.1in /  1018.8hPa SSO 2.9mph /  4.7km/h 5.2mph /  8.4km/h 73% 0in /  0.0mm
03:09 48.9 °F /  9.4 °C 40.6 °F /  4.8 °C 30.1in /  1019.0hPa SO 2.9mph /  4.7km/h 4.6mph /  7.4km/h 73% 0in /  0.0mm
03:14 48.9 °F /  9.4 °C 40.5 °F /  4.7 °C 30.1in /  1019.0hPa ONO 3.1mph /  5km/h 3.6mph /  5.8km/h 72.7% 0in /  0.0mm
03:19 48.7 °F /  9.3 °C 40.3 °F /  4.6 °C 30.1in /  1019.0hPa ONO 2.9mph /  4.6km/h 4.7mph /  7.6km/h 72.6% 0in /  0.0mm
03:24 48.7 °F /  9.3 °C 40.5 °F /  4.7 °C 30.1in /  1019.0hPa SE 2mph /  3.2km/h 4.7mph /  7.6km/h 73% 0in /  0.0mm
03:29 48.7 °F /  9.3 °C 40.5 °F /  4.7 °C 30.1in /  1018.8hPa SSE 2.2mph /  3.6km/h 4.3mph /  6.9km/h 73% 0in /  0.0mm
03:34 48.6 °F /  9.2 °C 40.3 °F /  4.6 °C 30.1in /  1018.8hPa Sur 2.9mph /  4.7km/h 4.6mph /  7.4km/h 73% 0in /  0.0mm
03:39 48.6 °F /  9.2 °C 40.3 °F /  4.6 °C 30.1in /  1018.8hPa SO 2.9mph /  4.7km/h 4.6mph /  7.4km/h 73% 0in /  0.0mm
03:44 48.6 °F /  9.2 °C 40.3 °F /  4.6 °C 30.1in /  1018.6hPa OSO 2.9mph /  4.7km/h 2.9mph /  4.7km/h 73% 0in /  0.0mm
03:49 48.6 °F /  9.2 °C 40.3 °F /  4.6 °C 30.1in /  1018.6hPa OSO 2.5mph /  4km/h 2.3mph /  3.7km/h 73% 0in /  0.0mm
03:54 48.6 °F /  9.2 °C 40.3 °F /  4.6 °C 30.1in /  1018.6hPa OSO 1.4mph /  2.3km/h 3.5mph /  5.6km/h 73% 0in /  0.0mm
03:59 48.4 °F /  9.1 °C 40.1 °F /  4.5 °C 30.1in /  1018.3hPa OSO 1.4mph /  2.3km/h 2.3mph /  3.7km/h 73% 0in /  0.0mm
04:04 48.2 °F /  9 °C 40.1 °F /  4.5 °C 30.1in /  1018.3hPa OSO 1.4mph /  2.3km/h 3.5mph /  5.6km/h 73.7% 0in /  0.0mm
04:09 48 °F /  8.9 °C 40.1 °F /  4.5 °C 30.1in /  1018.3hPa OSO 1.4mph /  2.3km/h 2.9mph /  4.7km/h 74% 0in /  0.0mm
04:14 48 °F /  8.9 °C 40.1 °F /  4.5 °C 30.1in /  1018.3hPa OSO 1.4mph /  2.3km/h 3.5mph /  5.6km/h 74% 0in /  0.0mm
04:19 47.8 °F /  8.8 °C 40.5 °F /  4.7 °C 30.1in /  1018.3hPa OSO 1.5mph /  2.4km/h 2.9mph /  4.7km/h 75% 0in /  0.0mm
04:24 47.8 °F /  8.8 °C 40.3 °F /  4.6 °C 30.1in /  1018.5hPa OSO 1.8mph /  2.9km/h 4.6mph /  7.4km/h 75% 0in /  0.0mm
04:29 47.8 °F /  8.8 °C 40.1 °F /  4.5 °C 30.1in /  1018.5hPa ONO 1.9mph /  3km/h 4.6mph /  7.4km/h 74.3% 0in /  0.0mm
04:34 47.7 °F /  8.7 °C 39.9 °F /  4.4 °C 30.1in /  1018.5hPa ONO 2mph /  3.2km/h 3.6mph /  5.8km/h 74.3% 0in /  0.0mm
04:39 47.5 °F /  8.6 °C 39.9 °F /  4.4 °C 30.1in /  1018.5hPa Oeste 2.1mph /  3.4km/h 4.6mph /  7.4km/h 75% 0in /  0.0mm
04:44 47.1 °F /  8.4 °C 39.7 °F /  4.3 °C 30.1in /  1018.4hPa OSO 2.4mph /  3.9km/h 4.7mph /  7.6km/h 75.5% 0in /  0.0mm
04:49 47.1 °F /  8.4 °C 39.9 °F /  4.4 °C 30.1in /  1018.4hPa Sur 2.7mph /  4.4km/h 5.9mph /  9.5km/h 76% 0in /  0.0mm
04:54 47.3 °F /  8.5 °C 40.1 °F /  4.5 °C 30.1in /  1018.4hPa SSO 3.6mph /  5.8km/h 5.8mph /  9.3km/h 76% 0in /  0.0mm
04:59 47.3 °F /  8.5 °C 40.1 °F /  4.5 °C 30.1in /  1018.2hPa SSO 3.4mph /  5.5km/h 4.7mph /  7.6km/h 76% 0in /  0.0mm
05:04 47.3 °F /  8.5 °C 40.1 °F /  4.5 °C 30.1in /  1018.2hPa Sur 3.1mph /  5km/h 5.8mph /  9.3km/h 76% 0in /  0.0mm
05:09 47.1 °F /  8.4 °C 39.9 °F /  4.4 °C 30.1in /  1018.2hPa Sur 3.1mph /  5km/h 5.2mph /  8.4km/h 76% 0in /  0.0mm
05:14 47.1 °F /  8.4 °C 39.9 °F /  4.4 °C 30.1in /  1018.0hPa SSO 3.1mph /  5km/h 6.4mph /  10.3km/h 76% 0in /  0.0mm
05:19 47.1 °F /  8.4 °C 39.9 °F /  4.4 °C 30.1in /  1018.0hPa SSO 3.4mph /  5.4km/h 6.9mph /  11.1km/h 76% 0in /  0.0mm
05:24 47.1 °F /  8.4 °C 39.9 °F /  4.4 °C 30.1in /  1018.0hPa SSO 4mph /  6.4km/h 6.9mph /  11.1km/h 76% 0in /  0.0mm
05:29 47.1 °F /  8.4 °C 39.9 °F /  4.4 °C 30.1in /  1017.9hPa SSO 4.1mph /  6.6km/h 6.2mph /  10km/h 76% 0in /  0.0mm
05:34 47.1 °F /  8.4 °C 39.7 °F /  4.3 °C 30.1in /  1017.9hPa SSO 4.3mph /  6.9km/h 6.9mph /  11.1km/h 75.4% 0in /  0.0mm
05:39 47.1 °F /  8.4 °C 39.6 °F /  4.2 °C 30.1in /  1017.9hPa SSO 4.2mph /  6.8km/h 4.6mph /  7.4km/h 75% 0in /  0.0mm
05:44 47.3 °F /  8.5 °C 39.9 °F /  4.4 °C 30.1in /  1017.8hPa SO 4mph /  6.4km/h 4.6mph /  7.4km/h 75% 0in /  0.0mm
05:49 47.5 °F /  8.6 °C 39.9 °F /  4.4 °C 30.1in /  1017.8hPa SO 3.5mph /  5.7km/h 3.6mph /  5.8km/h 75% 0in /  0.0mm
05:54 47.5 °F /  8.6 °C 39.9 °F /  4.4 °C 30.1in /  1017.8hPa SO 2.4mph /  3.9km/h 4.6mph /  7.4km/h 75% 0in /  0.0mm
05:59 47.5 °F /  8.6 °C 39.9 °F /  4.4 °C 30.1in /  1017.7hPa Oeste 2.4mph /  3.9km/h 4.6mph /  7.4km/h 74.9% 0in /  0.0mm
06:04 47.1 °F /  8.4 °C 39.4 °F /  4.1 °C 30.1in /  1017.7hPa Oeste 2.4mph /  3.9km/h 3.5mph /  5.6km/h 74.2% 0in /  0.0mm
06:09 46.9 °F /  8.3 °C 39.4 °F /  4.1 °C 30.1in /  1017.7hPa OSO 2.3mph /  3.7km/h 4.6mph /  7.4km/h 75% 0in /  0.0mm
06:14 46.8 °F /  8.2 °C 39.4 °F /  4.1 °C 30.1in /  1017.7hPa OSO 2mph /  3.2km/h 5.9mph /  9.5km/h 75.2% 0in /  0.0mm
06:19 46.6 °F /  8.1 °C 39.4 °F /  4.1 °C 30.1in /  1017.7hPa SO 2.5mph /  4.1km/h 6.2mph /  10km/h 76% 0in /  0.0mm
06:24 46.6 °F /  8.1 °C 39.7 °F /  4.3 °C 30.1in /  1017.7hPa SSO 4mph /  6.4km/h 6.9mph /  11.1km/h 76.6% 0in /  0.0mm
06:29 46.8 °F /  8.2 °C 39.9 °F /  4.4 °C 30.1in /  1017.7hPa SSO 4.2mph /  6.7km/h 8.5mph /  13.7km/h 77% 0in /  0.0mm
06:34 47.3 °F /  8.5 °C 40.3 °F /  4.6 °C 30.1in /  1017.7hPa Sur 4.7mph /  7.6km/h 8.5mph /  13.7km/h 76.4% 0in /  0.0mm
06:39 47.7 °F /  8.7 °C 39.9 °F /  4.4 °C 30.1in /  1017.7hPa SSO 4.7mph /  7.6km/h 6.9mph /  11.1km/h 74.7% 0in /  0.0mm
06:44 47.5 °F /  8.6 °C 39.6 °F /  4.2 °C 30.1in /  1017.7hPa SSE 4.7mph /  7.6km/h 5.9mph /  9.5km/h 74% 0in /  0.0mm
06:49 46.9 °F /  8.3 °C 39.2 °F /  4 °C 30.1in /  1017.7hPa SSE 4.4mph /  7.1km/h 5.8mph /  9.3km/h 74.4% 0in /  0.0mm
06:54 46.6 °F /  8.1 °C 39.2 °F /  4 °C 30.1in /  1017.7hPa SE 3.6mph /  5.8km/h 3.1mph /  5km/h 75% 0in /  0.0mm
06:59 46.2 °F /  7.9 °C 39 °F /  3.9 °C 30.1in /  1017.7hPa SE 3.1mph /  5km/h 6.2mph /  10km/h 75.9% 0in /  0.0mm
07:04 45.9 °F /  7.7 °C 38.7 °F /  3.7 °C 30.1in /  1017.7hPa SO 2mph /  3.2km/h 7.4mph /  11.9km/h 76% 0in /  0.0mm
07:09 45.3 °F /  7.4 °C 38.5 °F /  3.6 °C 30.1in /  1017.7hPa North 2.2mph /  3.6km/h 5.8mph /  9.3km/h 76.8% 0in /  0.0mm
07:14 45.1 °F /  7.3 °C 38.7 °F /  3.7 °C 30.1in /  1017.7hPa ONO 2.9mph /  4.7km/h 4.6mph /  7.4km/h 77.7% 0in /  0.0mm
07:19 45 °F /  7.2 °C 38.7 °F /  3.7 °C 30.1in /  1017.7hPa Oeste 2.8mph /  4.5km/h 4.6mph /  7.4km/h 78.6% 0in /  0.0mm
07:24 45 °F /  7.2 °C 38.7 °F /  3.7 °C 30.1in /  1017.8hPa Oeste 2.4mph /  3.9km/h 4.6mph /  7.4km/h 78.8% 0in /  0.0mm
07:29 44.8 °F /  7.1 °C 38.7 °F /  3.7 °C 30.1in /  1017.8hPa ONO 2.6mph /  4.2km/h 8.5mph /  13.7km/h 79% 0in /  0.0mm
07:34 44.4 °F /  6.9 °C 38.5 °F /  3.6 °C 30.1in /  1017.8hPa SO 3.1mph /  5km/h 6.9mph /  11.1km/h 79.5% 0in /  0.0mm
07:39 44.6 °F /  7 °C 38.8 °F /  3.8 °C 30.1in /  1018.0hPa Oeste 3.4mph /  5.5km/h 8.1mph /  13km/h 80% 0in /  0.0mm
07:44 44.8 °F /  7.1 °C 39 °F /  3.9 °C 30.1in /  1018.0hPa SO 4.3mph /  6.9km/h 8.1mph /  13km/h 80% 0in /  0.0mm
07:49 45 °F /  7.2 °C 39.2 °F /  4 °C 30.1in /  1018.0hPa SSO 4.3mph /  6.9km/h 5.9mph /  9.5km/h 80% 0in /  0.0mm
07:54 45.7 °F /  7.6 °C 39.7 °F /  4.3 °C 30.1in /  1018.0hPa Sur 4.3mph /  6.9km/h 8.1mph /  13km/h 79.4% 0in /  0.0mm
07:59 46.2 °F /  7.9 °C 39.6 °F /  4.2 °C 30.1in /  1017.9hPa Sur 4.7mph /  7.5km/h 8.1mph /  13km/h 77.4% 0in /  0.0mm
08:04 46.6 °F /  8.1 °C 39.7 °F /  4.3 °C 30.1in /  1017.9hPa SSO 5.4mph /  8.7km/h 6.9mph /  11.1km/h 76.7% 0in /  0.0mm
08:09 46.6 °F /  8.1 °C 39.4 °F /  4.1 °C 30.1in /  1018.0hPa SSO 4.9mph /  7.9km/h 4.6mph /  7.4km/h 76% 0in /  0.0mm
08:14 46.6 °F /  8.1 °C 39.4 °F /  4.1 °C 30.1in /  1018.0hPa SSO 3.6mph /  5.8km/h 3.5mph /  5.6km/h 76% 0in /  0.0mm
08:19 46.6 °F /  8.1 °C 39.4 °F /  4.1 °C 30.1in /  1018.0hPa SSO 3.2mph /  5.1km/h 4.7mph /  7.6km/h 76% 0in /  0.0mm
08:24 46.8 °F /  8.2 °C 39.4 °F /  4.1 °C 30.1in /  1018.0hPa SSO 2mph /  3.2km/h 6.9mph /  11.1km/h 75.5% 0in /  0.0mm
08:29 46.8 °F /  8.2 °C 39.4 °F /  4.1 °C 30.1in /  1018.0hPa SSO 2.7mph /  4.4km/h 7.4mph /  11.9km/h 74.8% 0in /  0.0mm
08:34 47.1 °F /  8.4 °C 39.2 °F /  4 °C 30.1in /  1018.0hPa OSO 4.7mph /  7.6km/h 5.9mph /  9.5km/h 74% 0in /  0.0mm
08:39 47.1 °F /  8.4 °C 39.2 °F /  4 °C 30.1in /  1018.1hPa OSO 4.3mph /  6.9km/h 5.2mph /  8.4km/h 73.5% 0in /  0.0mm
08:44 47.5 °F /  8.6 °C 39.2 °F /  4 °C 30.1in /  1018.1hPa SSO 3.1mph /  5km/h 7.4mph /  11.9km/h 73% 0in /  0.0mm
08:49 47.7 °F /  8.7 °C 39.2 °F /  4 °C 30.1in /  1018.1hPa North 3.4mph /  5.4km/h 7.4mph /  11.9km/h 72.1% 0in /  0.0mm
08:54 47.7 °F /  8.7 °C 39 °F /  3.9 °C 30.1in /  1018.1hPa Sur 4mph /  6.4km/h 5.2mph /  8.4km/h 72% 0in /  0.0mm
08:59 47.8 °F /  8.8 °C 39.4 °F /  4.1 °C 30.1in /  1018.1hPa Sur 3.7mph /  6km/h 5.2mph /  8.4km/h 72.8% 0in /  0.0mm
09:04 48.2 °F /  9 °C 39.4 °F /  4.1 °C 30.1in /  1018.1hPa Este 3.1mph /  5km/h 7.4mph /  11.9km/h 71.8% 0in /  0.0mm
09:09 48.6 °F /  9.2 °C 39.6 °F /  4.2 °C 30.1in /  1018.3hPa SE 3.2mph /  5.2km/h 5.8mph /  9.3km/h 71% 0in /  0.0mm
09:14 48.9 °F /  9.4 °C 39.7 °F /  4.3 °C 30.1in /  1018.3hPa ENE 3.6mph /  5.8km/h 5.2mph /  8.4km/h 70.5% 0in /  0.0mm
09:19 49.1 °F /  9.5 °C 39.6 °F /  4.2 °C 30.1in /  1018.3hPa SSE 3.4mph /  5.5km/h 5.9mph /  9.5km/h 69.3% 0in /  0.0mm
09:24 49.1 °F /  9.5 °C 39.7 °F /  4.3 °C 30.1in /  1018.4hPa SSE 2.9mph /  4.7km/h 4.7mph /  7.6km/h 69.9% 0in /  0.0mm
09:29 49.3 °F /  9.6 °C 39.9 °F /  4.4 °C 30.1in /  1018.4hPa SE 2.9mph /  4.7km/h 5.8mph /  9.3km/h 69.7% 0in /  0.0mm
09:34 49.6 °F /  9.8 °C 39.9 °F /  4.4 °C 30.1in /  1018.4hPa SSE 2.9mph /  4.7km/h 5.9mph /  9.5km/h 69.5% 0in /  0.0mm
09:39 50 °F /  10 °C 40.1 °F /  4.5 °C 30.1in /  1018.6hPa SSE 3.2mph /  5.1km/h 5.8mph /  9.3km/h 69% 0in /  0.0mm
09:44 50.7 °F /  10.4 °C 40.5 °F /  4.7 °C 30.1in /  1018.6hPa SSE 4mph /  6.4km/h 6.9mph /  11.1km/h 67.8% 0in /  0.0mm
09:49 51.6 °F /  10.9 °C 40.6 °F /  4.8 °C 30.1in /  1018.6hPa SSE 4.2mph /  6.7km/h 10.4mph /  16.7km/h 66.2% 0in /  0.0mm
09:54 53.1 °F /  11.7 °C 41 °F /  5 °C 30.1in /  1018.6hPa SSO 4.7mph /  7.6km/h 11.5mph /  18.5km/h 63.3% 0in /  0.0mm
09:59 54.5 °F /  12.5 °C 40.8 °F /  4.9 °C 30.1in /  1018.5hPa Sur 5.1mph /  8.2km/h 9.7mph /  15.6km/h 59.9% 0in /  0.0mm
10:04 55.6 °F /  13.1 °C 41 °F /  5 °C 30.1in /  1018.5hPa Sur 5.9mph /  9.5km/h 6.9mph /  11.1km/h 58% 0in /  0.0mm
10:09 56.1 °F /  13.4 °C 40.6 °F /  4.8 °C 30.1in /  1018.6hPa SO 5.5mph /  8.8km/h 7.4mph /  11.9km/h 56.3% 0in /  0.0mm
10:14 56.7 °F /  13.7 °C 40.5 °F /  4.7 °C 30.1in /  1018.6hPa SSO 4.3mph /  6.9km/h 6.9mph /  11.1km/h 54.6% 0in /  0.0mm
10:19 57.4 °F /  14.1 °C 40.5 °F /  4.7 °C 30.1in /  1018.6hPa SSO 4.4mph /  7.1km/h 10.4mph /  16.7km/h 53.1% 0in /  0.0mm
10:24 57.7 °F /  14.3 °C 40.1 °F /  4.5 °C 30.1in /  1018.6hPa Sur 4.7mph /  7.6km/h 11.5mph /  18.5km/h 52% 0in /  0.0mm
10:29 57.9 °F /  14.4 °C 40.3 °F /  4.6 °C 30.1in /  1018.6hPa SSO 5.1mph /  8.2km/h 10.4mph /  16.7km/h 51.7% 0in /  0.0mm
10:34 58.3 °F /  14.6 °C 40.3 °F /  4.6 °C 30.1in /  1018.6hPa SSO 6.2mph /  10km/h 10.4mph /  16.7km/h 51% 0in /  0.0mm
10:39 58.6 °F /  14.8 °C 40.3 °F /  4.6 °C 30.1in /  1018.6hPa Sur 6.2mph /  10km/h 10.4mph /  16.7km/h 50.6% 0in /  0.0mm
10:44 58.8 °F /  14.9 °C 39.7 °F /  4.3 °C 30.1in /  1018.5hPa SSO 6.2mph /  10km/h 12.3mph /  19.8km/h 49.1% 0in /  0.0mm
10:49 59.2 °F /  15.1 °C 39 °F /  3.9 °C 30.1in /  1018.5hPa SO 6.5mph /  10.5km/h 16.1mph /  25.9km/h 47.1% 0in /  0.0mm
10:54 59.5 °F /  15.3 °C 38.7 °F /  3.7 °C 30.1in /  1018.5hPa SSO 7.4mph /  11.9km/h 13.8mph /  22.2km/h 46% 0in /  0.0mm
10:59 59.7 °F /  15.4 °C 39.2 °F /  4 °C 30.1in /  1018.5hPa Sur 6.7mph /  10.8km/h 6.9mph /  11.1km/h 46.7% 0in /  0.0mm
11:04 60.3 °F /  15.7 °C 39.2 °F /  4 °C 30.1in /  1018.5hPa Sur 5.2mph /  8.4km/h 7.4mph /  11.9km/h 45.8% 0in /  0.0mm
11:09 60.4 °F /  15.8 °C 39.4 °F /  4.1 °C 30.1in /  1018.5hPa SSE 5mph /  8km/h 8.5mph /  13.7km/h 45.8% 0in /  0.0mm
11:14 60.6 °F /  15.9 °C 38.8 °F /  3.8 °C 30.1in /  1018.4hPa SO 4.3mph /  6.9km/h 9.2mph /  14.8km/h 44.5% 0in /  0.0mm
11:19 60.6 °F /  15.9 °C 38.8 °F /  3.8 °C 30.1in /  1018.4hPa SSO 4.5mph /  7.3km/h 6.9mph /  11.1km/h 44.3% 0in /  0.0mm
11:24 61 °F /  16.1 °C 38.7 °F /  3.7 °C 30.1in /  1018.4hPa SO 5.2mph /  8.4km/h 10.4mph /  16.7km/h 43.6% 0in /  0.0mm
11:29 61 °F /  16.1 °C 38.5 °F /  3.6 °C 30.1in /  1018.3hPa OSO 5mph /  8km/h 9.2mph /  14.8km/h 43.2% 0in /  0.0mm
11:34 61.2 °F /  16.2 °C 38.5 °F /  3.6 °C 30.1in /  1018.3hPa SO 4.3mph /  6.9km/h 8.7mph /  14km/h 43.2% 0in /  0.0mm
11:39 61.2 °F /  16.2 °C 38.5 °F /  3.6 °C 30.1in /  1018.3hPa SO 4.4mph /  7.1km/h 9.2mph /  14.8km/h 43% 0in /  0.0mm
11:44 61.3 °F /  16.3 °C 38.3 °F /  3.5 °C 30.1in /  1018.0hPa SO 4.7mph /  7.6km/h 9.7mph /  15.6km/h 42.6% 0in /  0.0mm
11:49 61.3 °F /  16.3 °C 38.5 °F /  3.6 °C 30.1in /  1018.0hPa SSO 5mph /  8.1km/h 9.7mph /  15.6km/h 42.8% 0in /  0.0mm
11:54 61.3 °F /  16.3 °C 38.1 °F /  3.4 °C 30.1in /  1018.0hPa SO 5.9mph /  9.5km/h 8.1mph /  13km/h 42.3% 0in /  0.0mm
11:59 61.3 °F /  16.3 °C 38.5 °F /  3.6 °C 30.1in /  1017.8hPa OSO 5.4mph /  8.7km/h 8.1mph /  13km/h 42.7% 0in /  0.0mm
12:04 61.7 °F /  16.5 °C 38.3 °F /  3.5 °C 30.1in /  1017.8hPa SO 4.3mph /  6.9km/h 4.6mph /  7.4km/h 42% 0in /  0.0mm
12:09 62.1 °F /  16.7 °C 38.7 °F /  3.7 °C 30.1in /  1017.8hPa NNO 4mph /  6.4km/h 6.9mph /  11.1km/h 42% 0in /  0.0mm
12:14 62.4 °F /  16.9 °C 38.5 °F /  3.6 °C 30in /  1017.3hPa SO 3.1mph /  5km/h 9.7mph /  15.6km/h 41.2% 0in /  0.0mm
12:19 62.4 °F /  16.9 °C 38.5 °F /  3.6 °C 30in /  1017.3hPa Sur 3.5mph /  5.7km/h 8.1mph /  13km/h 41% 0in /  0.0mm
12:24 62.8 °F /  17.1 °C 38.5 °F /  3.6 °C 30in /  1017.3hPa SO 4.7mph /  7.6km/h 15.2mph /  24.5km/h 40.6% 0in /  0.0mm
12:29 63.1 °F /  17.3 °C 36.5 °F /  2.5 °C 30in /  1017.0hPa SO 5.4mph /  8.7km/h 21.9mph /  35.2km/h 37.2% 0in /  0.0mm
12:34 63.7 °F /  17.6 °C 34.5 °F /  1.4 °C 30in /  1017.0hPa Oeste 7.4mph /  11.9km/h 16.3mph /  26.2km/h 33.7% 0in /  0.0mm
12:39 64.2 °F /  17.9 °C 32.4 °F /  0.2 °C 30in /  1017.0hPa Oeste 8.2mph /  13.2km/h 25.3mph /  40.7km/h 30.2% 0in /  0.0mm
12:44 64.6 °F /  18.1 °C 32.5 °F /  0.3 °C 30in /  1016.9hPa Oeste 10.7mph /  17.2km/h 21.3mph /  34.3km/h 30% 0in /  0.0mm
12:49 64.8 °F /  18.2 °C 32.4 °F /  0.2 °C 30in /  1016.9hPa ONO 11.1mph /  17.9km/h 26.3mph /  42.3km/h 29.7% 0in /  0.0mm
12:54 64.8 °F /  18.2 °C 31.6 °F /  -0.2 °C 30in /  1016.9hPa Oeste 12.3mph /  19.8km/h 26.5mph /  42.6km/h 29% 0in /  0.0mm
12:59 64.6 °F /  18.1 °C 31.8 °F /  -0.1 °C 30in /  1016.8hPa Oeste 12.6mph /  20.3km/h 30.1mph /  48.4km/h 29.3% 0in /  0.0mm
13:04 64.8 °F /  18.2 °C 32.5 °F /  0.3 °C 30in /  1016.8hPa Oeste 13.5mph /  21.7km/h 29.9mph /  48.1km/h 30% 0in /  0.0mm
13:09 64.8 °F /  18.2 °C 32.5 °F /  0.3 °C 30in /  1016.8hPa Oeste 13.4mph /  21.5km/h 23.5mph /  37.8km/h 29.9% 0in /  0.0mm
13:14 64.8 °F /  18.2 °C 31.6 °F /  -0.2 °C 30in /  1016.5hPa Oeste 13mph /  20.9km/h 22.3mph /  35.9km/h 29% 0in /  0.0mm
13:19 64.8 °F /  18.2 °C 31.6 °F /  -0.2 °C 30in /  1016.5hPa ONO 13.1mph /  21.1km/h 21.5mph /  34.6km/h 28.9% 0in /  0.0mm
13:24 64.9 °F /  18.3 °C 30.9 °F /  -0.6 °C 30in /  1016.5hPa ONO 13.5mph /  21.7km/h 22.5mph /  36.2km/h 28% 0in /  0.0mm
13:29 64.9 °F /  18.3 °C 31.1 °F /  -0.5 °C 30in /  1016.3hPa ONO 13.2mph /  21.3km/h 23mph /  37km/h 28% 0in /  0.0mm
13:34 65.1 °F /  18.4 °C 30.4 °F /  -0.9 °C 30in /  1016.3hPa ONO 12.5mph /  20.1km/h 27.6mph /  44.4km/h 27.1% 0in /  0.0mm
13:39 65.1 °F /  18.4 °C 30 °F /  -1.1 °C 30in /  1016.3hPa ONO 12.8mph /  20.6km/h 24.2mph /  38.9km/h 26.7% 0in /  0.0mm
13:44 65.3 °F /  18.5 °C 30.4 °F /  -0.9 °C 30in /  1016.1hPa Oeste 13.5mph /  21.7km/h 17.3mph /  27.8km/h 26.9% 0in /  0.0mm
13:49 65.5 °F /  18.6 °C 29.7 °F /  -1.3 °C 30in /  1016.1hPa Oeste 12.9mph /  20.8km/h 26.8mph /  43.1km/h 26% 0in /  0.0mm
13:54 65.3 °F /  18.5 °C 28.8 °F /  -1.8 °C 30in /  1016.1hPa ONO 11.4mph /  18.3km/h 26.5mph /  42.6km/h 25.3% 0in /  0.0mm
13:59 65.3 °F /  18.5 °C 28.4 °F /  -2 °C 30in /  1016.0hPa ONO 13mph /  21km/h 25.3mph /  40.7km/h 25% 0in /  0.0mm
14:04 65.3 °F /  18.5 °C 29.5 °F /  -1.4 °C 30in /  1016.0hPa ONO 17mph /  27.4km/h 20.7mph /  33.3km/h 26% 0in /  0.0mm
14:09 65.5 °F /  18.6 °C 29.8 °F /  -1.2 °C 30in /  1016.0hPa ONO 15.5mph /  25km/h 18.4mph /  29.6km/h 26% 0in /  0.0mm
14:14 65.7 °F /  18.7 °C 29.8 °F /  -1.2 °C 30in /  1015.5hPa Oeste 11.8mph /  19km/h 19.7mph /  31.7km/h 26% 0in /  0.0mm
14:19 66 °F /  18.9 °C 30 °F /  -1.1 °C 30in /  1015.5hPa ONO 11.7mph /  18.8km/h 21.9mph /  35.2km/h 26% 0in /  0.0mm
14:24 66 °F /  18.9 °C 30 °F /  -1.1 °C 30in /  1015.5hPa Oeste 11.4mph /  18.3km/h 18.4mph /  29.6km/h 26% 0in /  0.0mm
14:29 66.2 °F /  19 °C 30.7 °F /  -0.7 °C 30in /  1015.4hPa Oeste 11.4mph /  18.3km/h 24.2mph /  38.9km/h 26.6% 0in /  0.0mm
14:34 66.2 °F /  19 °C 30.4 °F /  -0.9 °C 30in /  1015.4hPa Oeste 11.2mph /  18km/h 20.7mph /  33.3km/h 26.2% 0in /  0.0mm
14:39 66 °F /  18.9 °C 29.7 °F /  -1.3 °C 30in /  1015.4hPa ONO 11.7mph /  18.8km/h 27.6mph /  44.4km/h 25.6% 0in /  0.0mm
14:44 65.8 °F /  18.8 °C 30 °F /  -1.1 °C 30in /  1015.4hPa Oeste 13mph /  20.9km/h 24.2mph /  38.9km/h 26% 0in /  0.0mm
14:49 65.8 °F /  18.8 °C 29.5 °F /  -1.4 °C 30in /  1015.4hPa ONO 13mph /  20.9km/h 29.1mph /  46.8km/h 25.5% 0in /  0.0mm
14:54 65.7 °F /  18.7 °C 29.5 °F /  -1.4 °C 30in /  1015.4hPa ONO 13mph /  20.9km/h 20.7mph /  33.3km/h 25.6% 0in /  0.0mm
14:59 65.8 °F /  18.8 °C 29.5 °F /  -1.4 °C 30in /  1015.4hPa Oeste 12.6mph /  20.3km/h 26.5mph /  42.6km/h 25.5% 0in /  0.0mm
15:04 65.8 °F /  18.8 °C 29.1 °F /  -1.6 °C 30in /  1015.4hPa ONO 11.8mph /  19km/h 24.2mph /  38.9km/h 25.1% 0in /  0.0mm
15:09 66 °F /  18.9 °C 29.1 °F /  -1.6 °C 30in /  1015.4hPa ONO 12.6mph /  20.2km/h 24.2mph /  38.9km/h 25% 0in /  0.0mm
15:14 65.8 °F /  18.8 °C 28.9 °F /  -1.7 °C 30in /  1015.3hPa ONO 14.7mph /  23.7km/h 23.5mph /  37.8km/h 25% 0in /  0.0mm
15:19 65.8 °F /  18.8 °C 28.9 °F /  -1.7 °C 30in /  1015.3hPa ONO 14.2mph /  22.9km/h 19.6mph /  31.5km/h 25% 0in /  0.0mm
15:24 66 °F /  18.9 °C 29.3 °F /  -1.5 °C 30in /  1015.5hPa Oeste 13mph /  20.9km/h 27.6mph /  44.4km/h 25.3% 0in /  0.0mm
15:29 65.8 °F /  18.8 °C 29.7 °F /  -1.3 °C 30in /  1015.5hPa Oeste 13.2mph /  21.2km/h 25.3mph /  40.7km/h 25.7% 0in /  0.0mm
15:34 65.7 °F /  18.7 °C 29.8 °F /  -1.2 °C 30in /  1015.5hPa ONO 13.7mph /  22km/h 25.3mph /  40.7km/h 26% 0in /  0.0mm
15:39 65.5 °F /  18.6 °C 29.8 °F /  -1.2 °C 30in /  1015.6hPa ONO 13.8mph /  22.2km/h 24.2mph /  38.9km/h 26.2% 0in /  0.0mm
15:44 65.5 °F /  18.6 °C 30.6 °F /  -0.8 °C 30in /  1015.6hPa ONO 14mph /  22.5km/h 21.3mph /  34.3km/h 27% 0in /  0.0mm
15:49 65.1 °F /  18.4 °C 30.2 °F /  -1 °C 30in /  1015.6hPa ONO 14mph /  22.5km/h 29.9mph /  48.1km/h 27% 0in /  0.0mm
15:54 64.8 °F /  18.2 °C 30.4 °F /  -0.9 °C 30in /  1015.9hPa ONO 14mph /  22.5km/h 26.5mph /  42.6km/h 27.3% 0in /  0.0mm
15:59 64.6 °F /  18.1 °C 30.4 °F /  -0.9 °C 30in /  1015.9hPa ONO 14.5mph /  23.3km/h 36mph /  57.9km/h 27.6% 0in /  0.0mm
16:04 64 °F /  17.8 °C 30.4 °F /  -0.9 °C 30in /  1015.9hPa ONO 15.6mph /  25.1km/h 35.1mph /  56.5km/h 28% 0in /  0.0mm
16:09 63.9 °F /  17.7 °C 30.7 °F /  -0.7 °C 30in /  1016.2hPa ONO 16.4mph /  26.4km/h 34.5mph /  55.5km/h 28.8% 0in /  0.0mm
16:14 63.9 °F /  17.7 °C 31.3 °F /  -0.4 °C 30in /  1016.2hPa ONO 18.5mph /  29.8km/h 18.4mph /  29.6km/h 29.3% 0in /  0.0mm
16:19 63.7 °F /  17.6 °C 30.9 °F /  -0.6 °C 30in /  1016.2hPa NO 16.9mph /  27.2km/h 31.1mph /  50.1km/h 29.1% 0in /  0.0mm
16:24 63.7 °F /  17.6 °C 30.7 °F /  -0.7 °C 30in /  1016.2hPa ONO 12.5mph /  20.1km/h 25.3mph /  40.7km/h 29% 0in /  0.0mm
16:29 63.7 °F /  17.6 °C 30.7 °F /  -0.7 °C 30in /  1016.2hPa ONO 13mph /  21km/h 25.3mph /  40.7km/h 29% 0in /  0.0mm
16:34 63.3 °F /  17.4 °C 31.3 °F /  -0.4 °C 30in /  1016.2hPa ONO 14.7mph /  23.7km/h 23.5mph /  37.8km/h 29.9% 0in /  0.0mm
16:39 63.1 °F /  17.3 °C 31.3 °F /  -0.4 °C 30in /  1016.3hPa ONO 13.9mph /  22.4km/h 23mph /  37km/h 30% 0in /  0.0mm
16:44 63.1 °F /  17.3 °C 31.3 °F /  -0.4 °C 30in /  1016.3hPa ONO 11.8mph /  19km/h 17.3mph /  27.8km/h 30.1% 0in /  0.0mm
16:49 63 °F /  17.2 °C 31.8 °F /  -0.1 °C 30in /  1016.3hPa ONO 11.5mph /  18.5km/h 15mph /  24.1km/h 31% 0in /  0.0mm
16:54 63 °F /  17.2 °C 31.8 °F /  -0.1 °C 30in /  1016.4hPa ONO 10.7mph /  17.2km/h 16.3mph /  26.2km/h 31% 0in /  0.0mm
16:59 63 °F /  17.2 °C 31.1 °F /  -0.5 °C 30in /  1016.4hPa Oeste 10.5mph /  16.9km/h 23.5mph /  37.8km/h 30% 0in /  0.0mm
17:04 63 °F /  17.2 °C 31.1 °F /  -0.5 °C 30in /  1016.4hPa Oeste 10mph /  16.1km/h 17.3mph /  27.8km/h 30% 0in /  0.0mm
17:09 63.1 °F /  17.3 °C 31.1 °F /  -0.5 °C 30in /  1016.6hPa Oeste 10mph /  16.1km/h 18.1mph /  29.1km/h 30% 0in /  0.0mm
17:14 63.1 °F /  17.3 °C 31.3 °F /  -0.4 °C 30in /  1016.6hPa Oeste 10mph /  16.1km/h 32.2mph /  51.8km/h 30% 0in /  0.0mm
17:19 63 °F /  17.2 °C 31.1 °F /  -0.5 °C 30in /  1016.6hPa Oeste 10.9mph /  17.5km/h 20.7mph /  33.3km/h 30% 0in /  0.0mm
17:24 63 °F /  17.2 °C 31.1 °F /  -0.5 °C 30in /  1016.7hPa Oeste 13.5mph /  21.7km/h 23.5mph /  37.8km/h 30.1% 0in /  0.0mm
17:29 62.8 °F /  17.1 °C 32 °F /  0 °C 30in /  1016.7hPa OSO 12.7mph /  20.5km/h 15mph /  24.1km/h 31.4% 0in /  0.0mm
17:34 62.2 °F /  16.8 °C 32.5 °F /  0.3 °C 30in /  1016.7hPa SO 10.7mph /  17.2km/h 16.8mph /  27km/h 32.6% 0in /  0.0mm
17:39 62.1 °F /  16.7 °C 32.9 °F /  0.5 °C 30in /  1017.0hPa OSO 10.1mph /  16.3km/h 17.3mph /  27.8km/h 33.6% 0in /  0.0mm
17:44 61.7 °F /  16.5 °C 32.9 °F /  0.5 °C 30in /  1017.0hPa SO 8.5mph /  13.7km/h 18.4mph /  29.6km/h 34% 0in /  0.0mm
17:49 61.5 °F /  16.4 °C 32.9 °F /  0.5 °C 30in /  1017.0hPa OSO 9.3mph /  14.9km/h 20.8mph /  33.5km/h 34% 0in /  0.0mm
17:54 61.3 °F /  16.3 °C 32.7 °F /  0.4 °C 30in /  1017.1hPa OSO 11.4mph /  18.3km/h 20.7mph /  33.3km/h 34% 0in /  0.0mm
17:59 61.2 °F /  16.2 °C 32.7 °F /  0.4 °C 30in /  1017.1hPa OSO 11.3mph /  18.2km/h 18.4mph /  29.6km/h 34.1% 0in /  0.0mm
18:04 61.2 °F /  16.2 °C 32.9 °F /  0.5 °C 30in /  1017.1hPa OSO 11.2mph /  18km/h 17.3mph /  27.8km/h 34.6% 0in /  0.0mm
18:09 61 °F /  16.1 °C 33.1 °F /  0.6 °C 30in /  1017.4hPa SO 10.9mph /  17.6km/h 13.8mph /  22.2km/h 35% 0in /  0.0mm
18:14 60.8 °F /  16 °C 32.9 °F /  0.5 °C 30in /  1017.4hPa SO 10.2mph /  16.4km/h 18.4mph /  29.6km/h 35% 0in /  0.0mm
18:19 60.6 °F /  15.9 °C 33.4 °F /  0.8 °C 30in /  1017.4hPa OSO 10.3mph /  16.6km/h 20.1mph /  32.3km/h 36% 0in /  0.0mm
18:24 60.4 °F /  15.8 °C 33.4 °F /  0.8 °C 30.1in /  1017.6hPa OSO 10.7mph /  17.2km/h 21.3mph /  34.3km/h 36.1% 0in /  0.0mm
18:29 60.3 °F /  15.7 °C 34 °F /  1.1 °C 30.1in /  1017.6hPa OSO 10.7mph /  17.2km/h 21.9mph /  35.2km/h 37% 0in /  0.0mm
18:34 60.3 °F /  15.7 °C 33.8 °F /  1 °C 30.1in /  1017.6hPa OSO 10.7mph /  17.2km/h 19.6mph /  31.5km/h 37% 0in /  0.0mm
18:39 60.1 °F /  15.6 °C 33.6 °F /  0.9 °C 30.1in /  1017.8hPa OSO 10.5mph /  16.9km/h 18.4mph /  29.6km/h 37% 0in /  0.0mm
18:44 59.9 °F /  15.5 °C 34 °F /  1.1 °C 30.1in /  1017.8hPa OSO 10mph /  16.1km/h 16.1mph /  25.9km/h 37.6% 0in /  0.0mm
18:49 59.7 °F /  15.4 °C 34 °F /  1.1 °C 30.1in /  1017.8hPa OSO 9.6mph /  15.5km/h 12.7mph /  20.4km/h 38% 0in /  0.0mm
18:54 59.5 °F /  15.3 °C 34 °F /  1.1 °C 30.1in /  1017.8hPa OSO 8.5mph /  13.7km/h 10.4mph /  16.7km/h 38.3% 0in /  0.0mm
18:59 59.4 °F /  15.2 °C 34.3 °F /  1.3 °C 30.1in /  1017.8hPa OSO 8mph /  12.9km/h 13.8mph /  22.2km/h 39% 0in /  0.0mm
19:04 59.4 °F /  15.2 °C 34.3 °F /  1.3 °C 30.1in /  1017.8hPa OSO 6.9mph /  11.1km/h 11.8mph /  19km/h 39% 0in /  0.0mm
19:09 59.4 °F /  15.2 °C 34.3 °F /  1.3 °C 30.1in /  1017.9hPa OSO 6.9mph /  11.1km/h 10.4mph /  16.7km/h 39% 0in /  0.0mm
19:14 59.2 °F /  15.1 °C 34.2 °F /  1.2 °C 30.1in /  1017.9hPa OSO 6.9mph /  11.1km/h 11.5mph /  18.5km/h 39% 0in /  0.0mm
19:19 58.8 °F /  14.9 °C 34 °F /  1.1 °C 30.1in /  1017.9hPa OSO 6.5mph /  10.4km/h 9.2mph /  14.8km/h 39% 0in /  0.0mm
19:24 58.8 °F /  14.9 °C 34 °F /  1.1 °C 30.1in /  1018.0hPa OSO 5.2mph /  8.4km/h 9.7mph /  15.6km/h 39.1% 0in /  0.0mm
19:29 58.6 °F /  14.8 °C 34.3 °F /  1.3 °C 30.1in /  1018.0hPa OSO 5mph /  8.1km/h 8.7mph /  14km/h 39.9% 0in /  0.0mm
19:34 58.6 °F /  14.8 °C 33.8 °F /  1 °C 30.1in /  1018.0hPa OSO 4.7mph /  7.6km/h 14mph /  22.5km/h 39.2% 0in /  0.0mm
19:39 58.6 °F /  14.8 °C 33.6 °F /  0.9 °C 30.1in /  1018.2hPa OSO 5.2mph /  8.3km/h 12.7mph /  20.4km/h 39% 0in /  0.0mm
19:44 58.6 °F /  14.8 °C 33.6 °F /  0.9 °C 30.1in /  1018.2hPa OSO 6.4mph /  10.3km/h 11.2mph /  18km/h 39% 0in /  0.0mm
19:49 58.6 °F /  14.8 °C 33.6 °F /  0.9 °C 30.1in /  1018.2hPa OSO 6.2mph /  9.9km/h 11.5mph /  18.5km/h 39% 0in /  0.0mm
19:54 58.5 °F /  14.7 °C 33.6 °F /  0.9 °C 30.1in /  1018.3hPa OSO 5.4mph /  8.7km/h 9.2mph /  14.8km/h 39.1% 0in /  0.0mm
19:59 58.5 °F /  14.7 °C 34 °F /  1.1 °C 30.1in /  1018.3hPa Oeste 5.2mph /  8.3km/h 6.9mph /  11.1km/h 39.9% 0in /  0.0mm
20:04 58.3 °F /  14.6 °C 34 °F /  1.1 °C 30.1in /  1018.3hPa Oeste 4.7mph /  7.6km/h 6.2mph /  10km/h 40% 0in /  0.0mm
20:09 57.9 °F /  14.4 °C 33.8 °F /  1 °C 30.1in /  1018.5hPa Oeste 4.5mph /  7.3km/h 6.9mph /  11.1km/h 40% 0in /  0.0mm
20:14 57.7 °F /  14.3 °C 34.2 °F /  1.2 °C 30.1in /  1018.5hPa OSO 4mph /  6.4km/h 6.9mph /  11.1km/h 40.9% 0in /  0.0mm
20:19 57.6 °F /  14.2 °C 34.2 °F /  1.2 °C 30.1in /  1018.5hPa OSO 4mph /  6.4km/h 6.9mph /  11.1km/h 41% 0in /  0.0mm
20:24 57.6 °F /  14.2 °C 34 °F /  1.1 °C 30.1in /  1018.5hPa OSO 4mph /  6.4km/h 6.2mph /  10km/h 41% 0in /  0.0mm
20:29 57.6 °F /  14.2 °C 34 °F /  1.1 °C 30.1in /  1018.5hPa OSO 3.9mph /  6.3km/h 5.8mph /  9.3km/h 41% 0in /  0.0mm
20:34 57.4 °F /  14.1 °C 34.2 °F /  1.2 °C 30.1in /  1018.5hPa SO 3.6mph /  5.8km/h 5.8mph /  9.3km/h 41.5% 0in /  0.0mm
20:39 57.4 °F /  14.1 °C 34.5 °F /  1.4 °C 30.1in /  1018.5hPa SO 3.7mph /  6km/h 6.9mph /  11.1km/h 42% 0in /  0.0mm
20:44 57.4 °F /  14.1 °C 34.5 °F /  1.4 °C 30.1in /  1018.5hPa Oeste 4mph /  6.4km/h 6.2mph /  10km/h 42% 0in /  0.0mm
20:49 57.4 °F /  14.1 °C 34.5 °F /  1.4 °C 30.1in /  1018.5hPa NO 3.8mph /  6.1km/h 4.6mph /  7.4km/h 42% 0in /  0.0mm
20:54 57.4 °F /  14.1 °C 34.5 °F /  1.4 °C 30.1in /  1019.0hPa NNO 3.1mph /  5km/h 4.7mph /  7.6km/h 42.3% 0in /  0.0mm
20:59 57 °F /  13.9 °C 34.9 °F /  1.6 °C 30.1in /  1019.0hPa North 3.1mph /  5km/h 5.8mph /  9.3km/h 43.4% 0in /  0.0mm
21:04 56.7 °F /  13.7 °C 35.4 °F /  1.9 °C 30.1in /  1019.0hPa NNO 3.1mph /  5km/h 7.4mph /  11.9km/h 44.6% 0in /  0.0mm
21:09 56.8 °F /  13.8 °C 36 °F /  2.2 °C 30.1in /  1019.1hPa NNO 3.4mph /  5.5km/h 8.5mph /  13.7km/h 45.5% 0in /  0.0mm
21:14 57 °F /  13.9 °C 36.3 °F /  2.4 °C 30.1in /  1019.1hPa NNO 4.3mph /  6.9km/h 11.5mph /  18.5km/h 46% 0in /  0.0mm
21:19 57.6 °F /  14.2 °C 37.2 °F /  2.9 °C 30.1in /  1019.1hPa NNO 4.8mph /  7.7km/h 12.3mph /  19.8km/h 46.6% 0in /  0.0mm
21:24 57.6 °F /  14.2 °C 38.5 °F /  3.6 °C 30.1in /  1019.6hPa NNO 6.2mph /  10km/h 19mph /  30.6km/h 49% 0in /  0.0mm
21:29 57 °F /  13.9 °C 39 °F /  3.9 °C 30.1in /  1019.6hPa NNO 6.5mph /  10.5km/h 14mph /  22.5km/h 50.9% 0in /  0.0mm
21:34 56.7 °F /  13.7 °C 39.4 °F /  4.1 °C 30.1in /  1019.6hPa NNO 7.4mph /  11.9km/h 13.8mph /  22.2km/h 52.6% 0in /  0.0mm
21:39 56.1 °F /  13.4 °C 39.6 °F /  4.2 °C 30.1in /  1020.0hPa NO 7.3mph /  11.7km/h 11.5mph /  18.5km/h 53.6% 0in /  0.0mm
21:44 56.1 °F /  13.4 °C 39.7 °F /  4.3 °C 30.1in /  1020.0hPa NNO 6.9mph /  11.1km/h 9.2mph /  14.8km/h 54% 0in /  0.0mm
21:49 55.9 °F /  13.3 °C 40.1 °F /  4.5 °C 30.1in /  1020.0hPa NNO 6.4mph /  10.3km/h 9.2mph /  14.8km/h 55.1% 0in /  0.0mm
21:54 55.8 °F /  13.2 °C 40.3 °F /  4.6 °C 30.1in /  1020.0hPa NNO 5.2mph /  8.4km/h 9.2mph /  14.8km/h 56% 0in /  0.0mm
21:59 55.6 °F /  13.1 °C 40.6 °F /  4.8 °C 30.1in /  1019.9hPa NNO 5mph /  8.1km/h 9.7mph /  15.6km/h 56.9% 0in /  0.0mm
22:04 55.4 °F /  13 °C 40.6 °F /  4.8 °C 30.1in /  1019.9hPa North 4.7mph /  7.6km/h 6.9mph /  11.1km/h 57.6% 0in /  0.0mm
22:09 55.2 °F /  12.9 °C 40.6 °F /  4.8 °C 30.1in /  1020.1hPa North 4.4mph /  7.1km/h 6.9mph /  11.1km/h 58% 0in /  0.0mm
22:14 55 °F /  12.8 °C 41 °F /  5 °C 30.1in /  1020.1hPa North 3.6mph /  5.8km/h 5.8mph /  9.3km/h 59% 0in /  0.0mm
22:19 54.9 °F /  12.7 °C 40.8 °F /  4.9 °C 30.1in /  1020.1hPa North 3.6mph /  5.8km/h 6.2mph /  10km/h 59.1% 0in /  0.0mm
22:24 54.9 °F /  12.7 °C 41.2 °F /  5.1 °C 30.1in /  1020.3hPa NNO 3.6mph /  5.8km/h 10.4mph /  16.7km/h 60% 0in /  0.0mm
22:29 54.9 °F /  12.7 °C 41.2 °F /  5.1 °C 30.1in /  1020.3hPa NO 4mph /  6.5km/h 9.2mph /  14.8km/h 60% 0in /  0.0mm
22:34 54.9 °F /  12.7 °C 41.2 °F /  5.1 °C 30.1in /  1020.3hPa NO 5.2mph /  8.4km/h 8.1mph /  13km/h 60% 0in /  0.0mm
22:39 54.7 °F /  12.6 °C 41.2 °F /  5.1 °C 30.1in /  1020.4hPa ONO 5mph /  8.1km/h 6.9mph /  11.1km/h 60% 0in /  0.0mm
22:44 54.5 °F /  12.5 °C 41.2 °F /  5.1 °C 30.1in /  1020.4hPa ONO 4.7mph /  7.6km/h 6.9mph /  11.1km/h 60.5% 0in /  0.0mm
22:49 54.1 °F /  12.3 °C 41 °F /  5 °C 30.1in /  1020.4hPa ONO 4.8mph /  7.8km/h 8.1mph /  13km/h 61% 0in /  0.0mm
22:54 54 °F /  12.2 °C 41.2 °F /  5.1 °C 30.1in /  1020.7hPa ONO 5.2mph /  8.4km/h 8.1mph /  13km/h 61.9% 0in /  0.0mm
22:59 54 °F /  12.2 °C 41.2 °F /  5.1 °C 30.1in /  1020.7hPa ONO 5.3mph /  8.5km/h 8.5mph /  13.7km/h 62% 0in /  0.0mm
23:04 53.8 °F /  12.1 °C 41.2 °F /  5.1 °C 30.1in /  1020.7hPa ONO 5.4mph /  8.7km/h 8.5mph /  13.7km/h 62% 0in /  0.0mm
Murcia-Puente Tocinos, Espa?a
Compliments of Weather Underground - 3 mb

La estación de MeteoMurcia.com, publica sus datos en los siguientes proyectos:

Weather Underground PWS IMURCIAP2 Meteoclimatic www.awekas.at

W3Counter
Web Analytics